createdAt,value
2019-01-06T00:00:55.477Z,6.67
2019-01-06T00:03:25.528Z,6.93
2019-01-06T00:06:04.049Z,9.53
2019-01-06T00:08:34.073Z,8.80
2019-01-06T00:11:04.121Z,7.77
2019-01-06T00:13:37.101Z,7.87
2019-01-06T00:16:16.125Z,6.97
2019-01-06T00:18:49.437Z,6.87
2019-01-06T00:21:28.559Z,8.33
2019-01-06T00:24:10.637Z,6.57
2019-01-06T00:26:43.506Z,11.10
2019-01-06T00:29:13.536Z,5.83
2019-01-06T00:31:55.713Z,5.87
2019-01-06T00:34:25.749Z,7.40
2019-01-06T00:37:12.069Z,9.50
2019-01-06T00:39:58.773Z,8.27
2019-01-06T00:42:31.753Z,7.10
2019-01-06T00:45:18.220Z,7.43
2019-01-06T00:47:48.245Z,6.57
2019-01-06T00:50:24.122Z,7.10
2019-01-06T00:52:54.145Z,8.40
2019-01-06T00:55:33.214Z,7.20
2019-01-06T00:58:05.950Z,8.17
2019-01-06T01:00:35.986Z,8.50
2019-01-06T01:03:08.963Z,8.63
2019-01-06T01:05:53.765Z,9.10
2019-01-06T01:08:23.805Z,10.63
2019-01-06T01:10:56.796Z,8.63
2019-01-06T01:13:29.528Z,7.33
2019-01-06T01:16:11.713Z,8.23
2019-01-06T01:18:57.946Z,8.70
2019-01-06T01:21:43.319Z,7.03
2019-01-06T01:24:22.565Z,9.07
2019-01-06T01:26:58.385Z,5.80
2019-01-06T01:29:44.889Z,8.63
2019-01-06T01:32:31.361Z,5.63
2019-01-06T01:35:04.078Z,6.40
2019-01-06T01:37:36.531Z,5.50
2019-01-06T01:40:06.718Z,5.87
2019-01-06T01:42:39.429Z,6.57
2019-01-06T01:45:15.229Z,7.80
2019-01-06T01:48:01.541Z,7.37
2019-01-06T01:50:34.748Z,6.63
2019-01-06T01:53:04.776Z,5.27
2019-01-06T01:55:51.578Z,6.10
2019-01-06T01:58:21.620Z,5.87
2019-01-06T02:00:57.595Z,6.67
2019-01-06T02:03:36.857Z,6.47
2019-01-06T02:06:23.103Z,5.53
2019-01-06T02:08:56.097Z,4.83
2019-01-06T02:11:31.653Z,6.57
2019-01-06T02:14:04.385Z,5.47
2019-01-06T02:16:50.631Z,5.00
2019-01-06T02:19:26.638Z,5.87
2019-01-06T02:22:13.085Z,4.57
2019-01-06T02:24:43.133Z,5.43
2019-01-06T02:27:29.441Z,5.07
2019-01-06T02:30:02.422Z,5.60
2019-01-06T02:32:33.987Z,5.43
2019-01-06T02:35:07.002Z,7.57
2019-01-06T02:37:46.289Z,5.87
2019-01-06T02:40:34.568Z,5.50
2019-01-06T02:43:10.573Z,6.33
2019-01-06T02:45:40.607Z,5.57
2019-01-06T02:48:10.645Z,5.40
2019-01-06T02:50:55.795Z,6.07
2019-01-06T02:53:25.837Z,5.97
2019-01-06T02:56:12.210Z,5.07
2019-01-06T02:58:45.461Z,5.30
2019-01-06T03:01:21.217Z,5.27
2019-01-06T03:03:53.681Z,5.43
2019-01-06T03:06:26.465Z,5.43
2019-01-06T03:08:59.309Z,7.60
2019-01-06T03:11:32.361Z,6.40
2019-01-06T03:14:05.362Z,5.47
2019-01-06T03:16:44.158Z,5.63
2019-01-06T03:19:14.270Z,5.07
2019-01-06T03:21:44.299Z,5.50
2019-01-06T03:24:14.326Z,4.97
2019-01-06T03:26:53.460Z,6.67
2019-01-06T03:29:35.679Z,6.63
2019-01-06T03:32:11.710Z,5.10
2019-01-06T03:35:00.234Z,7.30
2019-01-06T03:37:39.533Z,8.20
2019-01-06T03:40:26.217Z,5.70
2019-01-06T03:42:59.213Z,5.40
2019-01-06T03:45:29.245Z,5.77
2019-01-06T03:48:05.419Z,5.30
2019-01-06T03:50:52.053Z,4.87
2019-01-06T03:53:22.076Z,5.07
2019-01-06T03:56:08.337Z,5.53
2019-01-06T03:58:44.362Z,4.23
2019-01-06T04:01:14.701Z,4.93
2019-01-06T04:03:50.473Z,4.33
2019-01-06T04:06:26.242Z,5.40
2019-01-06T04:08:59.256Z,5.27
2019-01-06T04:11:32.030Z,4.37
2019-01-06T04:17:13.365Z,4.27
2019-01-06T04:19:59.986Z,4.00
2019-01-06T04:22:46.985Z,4.27
2019-01-06T04:25:29.184Z,3.70
2019-01-06T04:27:59.237Z,4.63
2019-01-06T04:30:31.974Z,3.67
2019-01-06T04:33:17.108Z,4.97
2019-01-06T04:36:05.040Z,5.23
2019-01-06T04:38:35.066Z,4.37
2019-01-06T04:41:08.057Z,4.53
2019-01-06T04:43:44.253Z,4.77
2019-01-06T04:46:20.161Z,4.60
2019-01-06T04:48:59.773Z,4.20
2019-01-06T04:51:29.801Z,4.77
2019-01-06T04:54:02.508Z,3.33
2019-01-06T04:56:48.821Z,3.67
2019-01-06T04:59:35.262Z,3.47
2019-01-06T05:02:05.312Z,3.10
2019-01-06T05:04:51.695Z,3.57
2019-01-06T05:07:40.169Z,4.10
2019-01-06T05:10:12.972Z,3.23
2019-01-06T05:12:48.915Z,3.77
2019-01-06T05:15:27.701Z,3.47
2019-01-06T05:18:15.293Z,3.30
2019-01-06T05:20:54.305Z,3.30
2019-01-06T05:23:24.353Z,2.80
2019-01-06T05:26:19.692Z,3.53
2019-01-06T05:29:06.058Z,2.80
2019-01-06T05:31:52.814Z,3.60
2019-01-06T05:34:41.029Z,3.20
2019-01-06T05:37:27.685Z,4.10
2019-01-06T05:40:06.914Z,3.20
2019-01-06T05:42:43.321Z,3.70
2019-01-06T05:45:13.349Z,3.87
2019-01-06T05:48:01.454Z,3.57
2019-01-06T05:50:47.773Z,4.17
2019-01-06T05:53:20.425Z,3.77
2019-01-06T05:55:59.686Z,5.50
2019-01-06T05:58:29.729Z,4.33
2019-01-06T06:01:06.000Z,5.20
2019-01-06T06:03:38.991Z,3.70
2019-01-06T06:06:14.785Z,3.90
2019-01-06T06:09:01.333Z,5.10
2019-01-06T06:11:37.418Z,5.70
2019-01-06T06:14:23.785Z,4.90
2019-01-06T06:17:00.372Z,4.60
2019-01-06T06:19:48.917Z,4.20
2019-01-06T06:22:18.952Z,5.27
2019-01-06T06:24:49.007Z,4.90
2019-01-06T06:27:19.028Z,6.03
2019-01-06T06:29:52.009Z,4.20
2019-01-06T06:32:38.813Z,4.60
2019-01-06T06:35:08.832Z,4.70
2019-01-06T06:37:41.777Z,3.90
2019-01-06T06:40:23.732Z,4.37
2019-01-06T06:43:06.162Z,5.53
2019-01-06T06:45:36.505Z,5.30
2019-01-06T06:48:09.238Z,5.37
2019-01-06T06:50:47.916Z,4.47
2019-01-06T06:53:17.938Z,5.10
2019-01-06T06:55:59.821Z,6.27
2019-01-06T06:58:35.577Z,4.17
2019-01-06T07:01:17.983Z,5.57
2019-01-06T07:04:10.339Z,4.93
2019-01-06T07:06:56.593Z,4.50
2019-01-06T07:09:38.926Z,7.47
2019-01-06T07:12:11.781Z,5.13
2019-01-06T07:14:42.169Z,7.10
2019-01-06T07:18:07.617Z,5.60
2019-01-06T07:20:52.904Z,4.33
2019-01-06T07:23:34.628Z,5.87
2019-01-06T07:26:07.350Z,5.70
2019-01-06T07:28:54.049Z,5.23
2019-01-06T07:31:33.299Z,5.20
2019-01-06T07:34:19.682Z,5.47
2019-01-06T07:37:01.979Z,4.63
2019-01-06T07:39:32.304Z,6.27
2019-01-06T07:42:17.176Z,6.10
2019-01-06T07:45:05.337Z,5.33
2019-01-06T07:47:35.388Z,4.83
2019-01-06T07:50:05.794Z,4.40
2019-01-06T07:52:48.136Z,5.40
2019-01-06T07:55:27.096Z,5.90
2019-01-06T07:58:00.028Z,5.03
2019-01-06T08:00:30.061Z,5.37
2019-01-06T08:03:16.159Z,4.70
2019-01-06T08:05:49.029Z,5.30
2019-01-06T08:08:37.404Z,5.87
2019-01-06T08:11:13.164Z,6.33
2019-01-06T08:13:43.209Z,6.47
2019-01-06T08:16:13.283Z,4.17
2019-01-06T08:18:43.313Z,6.50
2019-01-06T08:21:19.176Z,5.03
2019-01-06T08:24:07.033Z,5.80
2019-01-06T08:26:52.533Z,5.73
2019-01-06T08:29:40.917Z,5.63
2019-01-06T08:32:10.972Z,6.23
2019-01-06T08:34:47.044Z,5.50
2019-01-06T08:37:20.197Z,4.97
2019-01-06T08:39:50.253Z,4.83
2019-01-06T08:42:37.007Z,6.43
2019-01-06T08:45:23.602Z,5.10
2019-01-06T08:48:05.866Z,4.27
2019-01-06T08:50:35.910Z,5.43
2019-01-06T08:53:06.165Z,4.23
2019-01-06T08:55:52.421Z,4.60
2019-01-06T08:58:25.652Z,4.70
2019-01-06T09:00:58.077Z,4.70
2019-01-06T09:03:28.112Z,5.37
2019-01-06T09:06:14.750Z,3.50
2019-01-06T09:08:54.028Z,4.37
2019-01-06T09:11:36.408Z,4.10
2019-01-06T09:14:24.409Z,5.03
2019-01-06T09:17:12.681Z,2.97
2019-01-06T09:19:50.597Z,3.30
2019-01-06T09:22:36.872Z,4.17
2019-01-06T09:25:07.793Z,3.67
2019-01-06T09:27:46.529Z,3.30
2019-01-06T09:30:32.866Z,3.73
2019-01-06T09:33:08.596Z,3.97
2019-01-06T09:35:55.184Z,5.13
2019-01-06T09:38:43.512Z,5.40
2019-01-06T09:41:13.809Z,6.07
2019-01-06T09:43:59.125Z,5.83
2019-01-06T09:46:47.034Z,8.77
2019-01-06T09:49:17.329Z,4.23
2019-01-06T09:52:02.013Z,4.33
2019-01-06T09:54:38.018Z,6.63
2019-01-06T09:57:17.071Z,4.70
2019-01-06T09:59:56.084Z,4.40
2019-01-06T10:02:29.566Z,5.27
2019-01-06T10:04:59.588Z,5.10
2019-01-06T10:07:29.621Z,4.50
2019-01-06T10:10:16.293Z,4.70
2019-01-06T10:13:02.738Z,4.27
2019-01-06T10:15:35.730Z,5.53
2019-01-06T10:18:11.773Z,5.40
2019-01-06T10:20:47.636Z,4.87
2019-01-06T10:23:23.828Z,5.50
2019-01-06T10:25:56.620Z,3.93
2019-01-06T10:28:43.213Z,3.90
2019-01-06T10:31:22.689Z,4.97
2019-01-06T10:33:52.982Z,5.90
2019-01-06T10:36:35.357Z,4.77
2019-01-06T10:39:07.413Z,4.00
2019-01-06T10:41:37.445Z,4.17
2019-01-06T10:44:19.605Z,4.20
2019-01-06T10:47:06.022Z,3.80
2019-01-06T10:49:36.064Z,5.63
2019-01-06T10:52:22.255Z,6.83
2019-01-06T10:54:52.493Z,6.47
2019-01-06T10:57:34.605Z,5.63
2019-01-06T11:00:22.015Z,4.30
2019-01-06T11:03:00.908Z,5.73
2019-01-06T11:05:33.617Z,6.30
2019-01-06T11:08:19.775Z,5.40
2019-01-06T11:10:51.153Z,4.93
2019-01-06T11:13:21.648Z,6.63
2019-01-06T11:15:54.609Z,5.70
2019-01-06T11:18:40.729Z,5.20
2019-01-06T11:21:11.008Z,4.80
2019-01-06T11:23:41.037Z,6.43
2019-01-06T11:26:13.803Z,5.67
2019-01-06T11:28:46.657Z,4.23
2019-01-06T11:31:41.369Z,3.63
2019-01-06T11:34:27.934Z,4.43
2019-01-06T11:37:03.890Z,4.17
2019-01-06T11:39:37.124Z,4.83
2019-01-06T11:42:23.337Z,5.03
2019-01-06T11:45:19.778Z,5.10
2019-01-06T11:47:49.813Z,3.77
2019-01-06T11:50:36.328Z,4.97
2019-01-06T11:53:12.502Z,6.77
2019-01-06T11:55:45.462Z,5.30
2019-01-06T11:58:24.273Z,4.63
2019-01-06T12:00:54.309Z,3.83
2019-01-06T12:03:41.060Z,3.40
2019-01-06T12:06:17.109Z,4.13
2019-01-06T12:08:47.154Z,4.47
2019-01-06T12:11:32.193Z,3.80
2019-01-06T12:17:11.309Z,2.13
2019-01-06T12:19:50.359Z,2.70
2019-01-06T12:22:36.640Z,2.10
2019-01-06T12:25:10.577Z,3.80
2019-01-06T12:27:40.621Z,3.47
2019-01-06T12:30:13.098Z,2.83
2019-01-06T12:32:48.914Z,3.27
2019-01-06T12:35:37.130Z,2.77
2019-01-06T12:38:16.473Z,2.53
2019-01-06T12:40:58.257Z,2.77
2019-01-06T12:43:37.057Z,2.60
2019-01-06T12:46:09.773Z,3.53
2019-01-06T12:48:56.441Z,2.20
2019-01-06T12:51:43.748Z,2.43
2019-01-06T12:54:14.961Z,2.53
2019-01-06T12:57:01.553Z,2.40
2019-01-06T12:59:37.642Z,2.33
2019-01-06T13:02:24.029Z,3.57
2019-01-06T13:04:54.054Z,2.50
2019-01-06T13:07:29.802Z,2.73
2019-01-06T13:10:15.877Z,4.20
2019-01-06T13:12:52.109Z,3.30
2019-01-06T13:15:40.406Z,3.97
2019-01-06T13:18:10.458Z,2.97
2019-01-06T13:20:40.483Z,4.03
2019-01-06T13:23:19.667Z,5.43
2019-01-06T13:25:49.687Z,3.70
2019-01-06T13:28:37.398Z,3.83
2019-01-06T13:31:23.525Z,2.60
2019-01-06T13:33:56.853Z,3.03
2019-01-06T13:36:36.143Z,4.70
2019-01-06T13:39:09.968Z,3.83
2019-01-06T13:41:39.991Z,3.27
2019-01-06T13:44:22.387Z,2.90
2019-01-06T13:46:55.494Z,3.00
2019-01-06T13:49:34.842Z,2.60
2019-01-06T13:52:21.274Z,2.40
2019-01-06T13:55:00.551Z,2.87
2019-01-06T13:57:45.255Z,3.97
2019-01-06T14:00:31.709Z,2.03
2019-01-06T14:03:01.737Z,3.73
2019-01-06T14:05:49.185Z,2.90
2019-01-06T14:08:19.225Z,3.60
2019-01-06T14:11:05.297Z,2.77
2019-01-06T14:13:53.634Z,3.30
2019-01-06T14:16:29.662Z,2.60
2019-01-06T14:19:05.889Z,3.00
2019-01-06T14:21:38.839Z,2.80
2019-01-06T14:24:21.156Z,8.90
2019-01-06T14:27:07.452Z,2.83
2019-01-06T14:29:37.494Z,2.13
2019-01-06T14:32:13.317Z,1.70
2019-01-06T14:34:50.947Z,2.10
2019-01-06T14:37:23.916Z,1.67
2019-01-06T14:40:10.299Z,1.70
2019-01-06T14:42:57.253Z,2.17
2019-01-06T14:45:27.278Z,2.87
2019-01-06T14:47:57.304Z,1.93
2019-01-06T14:50:39.768Z,2.40
2019-01-06T14:56:19.973Z,2.60
2019-01-06T14:58:50.262Z,3.67
2019-01-06T15:01:38.753Z,2.83
2019-01-06T15:04:25.309Z,2.93
2019-01-06T15:07:04.587Z,4.77
2019-01-06T15:09:40.589Z,3.07
2019-01-06T15:12:16.907Z,4.43
2019-01-06T15:14:46.945Z,3.60
2019-01-06T15:17:33.625Z,3.90
2019-01-06T15:20:06.409Z,3.73
2019-01-06T15:22:45.950Z,3.90
2019-01-06T15:25:15.966Z,3.70
2019-01-06T15:27:57.962Z,3.67
2019-01-06T15:30:33.581Z,3.80
2019-01-06T15:33:03.622Z,3.53
2019-01-06T15:35:39.646Z,2.87
2019-01-06T15:38:25.887Z,3.47
2019-01-06T15:41:02.141Z,6.70
2019-01-06T15:43:32.177Z,4.70
2019-01-06T15:46:02.467Z,5.50
2019-01-06T15:48:38.257Z,3.57
2019-01-06T15:51:24.619Z,3.83
2019-01-06T15:53:54.884Z,4.10
2019-01-06T15:56:41.112Z,4.50
2019-01-06T15:59:11.166Z,4.83
2019-01-06T16:01:57.503Z,5.00
2019-01-06T16:04:44.106Z,5.40
2019-01-06T16:07:17.235Z,4.03
2019-01-06T16:10:05.251Z,4.27
2019-01-06T16:12:40.778Z,4.37
2019-01-06T16:15:10.799Z,5.70
2019-01-06T16:17:40.836Z,4.00
2019-01-06T16:20:32.276Z,3.43
2019-01-06T16:23:08.150Z,4.43
2019-01-06T16:25:52.057Z,3.63
2019-01-06T16:28:29.190Z,3.00
2019-01-06T16:31:17.613Z,4.97
2019-01-06T16:33:47.682Z,3.37
2019-01-06T16:36:20.668Z,3.57
2019-01-06T16:38:55.004Z,3.53
2019-01-06T16:41:30.824Z,2.50
2019-01-06T16:44:01.210Z,3.30
2019-01-06T16:46:47.703Z,3.50
2019-01-06T16:49:29.944Z,4.27
2019-01-06T16:52:00.022Z,4.73
2019-01-06T16:54:30.044Z,4.80
2019-01-06T16:57:00.126Z,3.47
2019-01-06T16:59:36.172Z,3.67
2019-01-06T17:02:21.096Z,3.80
2019-01-06T17:04:51.139Z,4.07
2019-01-06T17:07:27.372Z,5.03
2019-01-06T17:10:00.368Z,6.73
2019-01-06T17:12:48.704Z,6.47
2019-01-06T17:15:36.945Z,5.50
2019-01-06T17:18:06.985Z,6.20
2019-01-06T17:20:37.012Z,5.50
2019-01-06T17:23:18.877Z,5.13
2019-01-06T17:25:51.364Z,6.53
2019-01-06T17:28:39.253Z,5.40
2019-01-06T17:31:14.853Z,7.43
2019-01-06T17:33:53.906Z,6.07
2019-01-06T17:36:41.778Z,6.73
2019-01-06T17:39:20.848Z,6.80
2019-01-06T17:42:02.993Z,7.70
2019-01-06T17:44:45.242Z,7.43
2019-01-06T17:47:15.281Z,7.07
2019-01-06T17:49:48.201Z,6.37
2019-01-06T17:52:34.496Z,10.03
2019-01-06T17:55:21.478Z,7.00
2019-01-06T17:58:01.041Z,7.73
2019-01-06T18:00:31.065Z,7.57
2019-01-06T18:03:06.845Z,8.33
2019-01-06T18:05:54.916Z,8.50
2019-01-06T18:08:39.960Z,8.97
2019-01-06T18:11:12.418Z,10.53
2019-01-06T18:13:45.161Z,11.07
2019-01-06T18:16:27.445Z,8.33
2019-01-06T18:19:15.396Z,8.10
2019-01-06T18:21:48.367Z,6.17
2019-01-06T18:24:34.645Z,8.67
2019-01-06T18:27:21.597Z,6.53
2019-01-06T18:30:07.841Z,7.53
2019-01-06T18:32:49.692Z,5.70
2019-01-06T18:35:22.710Z,5.47
2019-01-06T18:38:08.123Z,6.30
2019-01-06T18:40:41.038Z,8.10
2019-01-06T18:43:13.875Z,6.20
2019-01-06T18:45:55.684Z,7.63
2019-01-06T18:48:43.485Z,7.03
2019-01-06T18:51:29.988Z,8.53
2019-01-06T18:54:06.350Z,7.70
2019-01-06T18:56:51.710Z,7.77
2019-01-06T18:59:30.437Z,9.10
2019-01-06T19:02:09.518Z,7.03
2019-01-06T19:04:48.402Z,9.57
2019-01-06T19:07:18.431Z,10.60
2019-01-06T19:10:04.913Z,13.13
2019-01-06T19:12:37.883Z,6.57
2019-01-06T19:15:24.597Z,8.07
2019-01-06T19:18:03.637Z,8.30
2019-01-06T19:20:49.892Z,8.60
2019-01-06T19:23:19.925Z,9.17
2019-01-06T19:26:06.487Z,7.73
2019-01-06T19:28:39.485Z,8.13
2019-01-06T19:31:24.846Z,6.23
2019-01-06T19:34:03.833Z,6.00
2019-01-06T19:36:42.809Z,5.40
2019-01-06T19:39:16.037Z,8.70
2019-01-06T19:41:55.318Z,8.70
2019-01-06T19:44:25.925Z,6.70
2019-01-06T19:47:11.950Z,5.53
2019-01-06T19:49:41.968Z,5.13
2019-01-06T19:52:17.905Z,5.00
2019-01-06T19:55:04.208Z,4.67
2019-01-06T19:57:37.000Z,6.33
2019-01-06T20:00:12.221Z,5.40
2019-01-06T20:02:45.013Z,5.93
2019-01-06T20:05:30.113Z,5.80
2019-01-06T20:08:02.836Z,6.17
2019-01-06T20:10:49.697Z,6.53
2019-01-06T20:13:19.726Z,6.03
2019-01-06T20:16:06.518Z,5.37
2019-01-06T20:18:48.424Z,6.27
2019-01-06T20:21:24.230Z,5.50
2019-01-06T20:24:10.786Z,5.13
2019-01-06T20:26:57.103Z,4.77
2019-01-06T20:29:36.413Z,6.03
2019-01-06T20:32:12.862Z,5.43
2019-01-06T20:34:59.294Z,5.10
2019-01-06T20:37:29.350Z,4.90
2019-01-06T20:40:17.461Z,5.27
2019-01-06T20:43:03.825Z,4.93
2019-01-06T20:45:50.263Z,5.00
2019-01-06T20:48:29.306Z,5.63
2019-01-06T20:51:08.533Z,9.97
2019-01-06T20:53:44.477Z,5.17
2019-01-06T20:56:14.501Z,4.37
2019-01-06T20:58:47.202Z,5.47
2019-01-06T21:01:29.193Z,4.47
2019-01-06T21:04:14.266Z,5.07
2019-01-06T21:06:50.105Z,5.10
2019-01-06T21:09:26.028Z,4.77
2019-01-06T21:12:14.650Z,4.20
2019-01-06T21:15:01.110Z,4.33
2019-01-06T21:17:47.505Z,4.57
2019-01-06T21:20:17.568Z,4.80
2019-01-06T21:23:03.725Z,3.83
2019-01-06T21:25:50.025Z,4.50
2019-01-06T21:28:22.947Z,3.93
2019-01-06T21:31:09.194Z,5.03
2019-01-06T21:33:39.251Z,4.73
2019-01-06T21:36:25.682Z,5.03
2019-01-06T21:38:55.736Z,4.33
2019-01-06T21:41:25.769Z,3.93
2019-01-06T21:44:12.154Z,3.73
2019-01-06T21:46:57.762Z,3.07
2019-01-06T21:49:27.797Z,4.57
2019-01-06T21:51:57.827Z,4.40
2019-01-06T21:54:39.733Z,5.47
2019-01-06T21:57:09.770Z,4.13
2019-01-06T21:59:42.486Z,5.77
2019-01-06T22:02:24.468Z,5.87
2019-01-06T22:05:00.500Z,4.37
2019-01-06T22:07:48.185Z,7.10
2019-01-06T22:10:30.111Z,6.13
2019-01-06T22:13:09.408Z,5.30
2019-01-06T22:15:48.657Z,5.47
2019-01-06T22:18:36.357Z,5.27
2019-01-06T22:21:11.830Z,5.20
2019-01-06T22:23:47.597Z,3.90
2019-01-06T22:26:26.620Z,5.50
2019-01-06T22:29:12.818Z,4.33
2019-01-06T22:31:59.638Z,4.07
2019-01-06T22:34:47.928Z,4.67
2019-01-06T22:37:32.747Z,5.07
2019-01-06T22:40:08.637Z,4.50
2019-01-06T22:42:54.985Z,5.10
2019-01-06T22:45:40.258Z,4.10
2019-01-06T22:48:22.298Z,3.17
2019-01-06T22:50:58.062Z,3.53
2019-01-06T22:53:37.257Z,4.40
2019-01-06T22:56:23.825Z,5.43
2019-01-06T22:58:56.792Z,4.13
2019-01-06T23:01:45.084Z,3.57
2019-01-06T23:04:15.121Z,4.67
2019-01-06T23:07:00.419Z,3.03
2019-01-06T23:09:45.549Z,5.10
2019-01-06T23:12:15.573Z,3.43
2019-01-06T23:14:57.405Z,5.37
2019-01-06T23:17:36.289Z,5.77
2019-01-06T23:20:07.353Z,3.57
2019-01-06T23:22:49.596Z,3.37
2019-01-06T23:25:19.871Z,3.40
2019-01-06T23:27:58.917Z,3.63
2019-01-06T23:30:35.030Z,3.90
2019-01-06T23:33:11.009Z,4.57
2019-01-06T23:35:41.032Z,3.93
2019-01-06T23:38:13.704Z,4.17
2019-01-06T23:40:46.706Z,4.57
2019-01-06T23:43:32.669Z,4.57
2019-01-06T23:46:19.421Z,3.93
2019-01-06T23:48:49.448Z,5.03
2019-01-06T23:51:36.089Z,4.10
2019-01-06T23:54:22.510Z,4.73
2019-01-06T23:56:58.533Z,4.40
2019-01-06T23:59:34.330Z,4.57
